createdAt,value
2019-04-14T00:00:03.528Z,31.10
2019-04-14T00:01:04.332Z,30.20
2019-04-14T00:02:03.465Z,32.40
2019-04-14T00:03:04.433Z,35.20
2019-04-14T00:04:03.457Z,35.60
2019-04-14T00:05:03.991Z,35.70
2019-04-14T00:06:04.705Z,36.00
2019-04-14T00:07:03.738Z,36.40
2019-04-14T00:08:04.539Z,34.90
2019-04-14T00:09:03.392Z,33.30
2019-04-14T00:10:03.382Z,33.90
2019-04-14T00:11:04.013Z,34.40
2019-04-14T00:12:06.242Z,33.00
2019-04-14T00:13:04.521Z,33.40
2019-04-14T00:14:03.335Z,31.10
2019-04-14T00:15:04.377Z,32.70
2019-04-14T00:16:03.318Z,32.10
2019-04-14T00:17:04.224Z,32.00
2019-04-14T00:18:03.288Z,30.50
2019-04-14T00:19:04.375Z,31.30
2019-04-14T00:20:03.281Z,31.20
2019-04-14T00:21:04.349Z,30.60
2019-04-14T00:22:03.381Z,30.90
2019-04-14T00:23:04.378Z,30.20
2019-04-14T00:24:03.222Z,30.90
2019-04-14T00:25:04.359Z,31.20
2019-04-14T00:26:03.232Z,31.40
2019-04-14T00:27:04.215Z,30.50
2019-04-14T00:28:03.177Z,31.40
2019-04-14T00:29:04.463Z,30.60
2019-04-14T00:30:03.406Z,32.40
2019-04-14T00:31:04.428Z,30.90
2019-04-14T00:32:03.131Z,31.60
2019-04-14T00:33:04.155Z,31.20
2019-04-14T00:34:03.119Z,31.30
2019-04-14T00:35:03.896Z,30.90
2019-04-14T00:36:04.395Z,31.00
2019-04-14T00:37:03.420Z,31.40
2019-04-14T00:38:04.149Z,31.30
2019-04-14T00:39:03.195Z,31.30
2019-04-14T00:40:04.010Z,32.30
2019-04-14T00:41:03.042Z,32.80
2019-04-14T00:42:03.805Z,30.90
2019-04-14T00:43:03.027Z,32.50
2019-04-14T00:44:03.558Z,31.40
2019-04-14T00:45:02.995Z,32.90
2019-04-14T00:46:04.274Z,31.50
2019-04-14T00:47:02.973Z,34.40
2019-04-14T00:48:07.955Z,32.90
2019-04-14T00:49:04.981Z,30.40
2019-04-14T00:50:03.664Z,32.20
2019-04-14T00:51:02.944Z,31.40
2019-04-14T00:52:03.623Z,31.80
2019-04-14T00:53:03.470Z,30.80
2019-04-14T00:54:02.912Z,31.70
2019-04-14T00:55:03.298Z,31.90
2019-04-14T00:56:03.979Z,32.40
2019-04-14T00:57:03.177Z,32.20
2019-04-14T00:58:03.859Z,31.40
2019-04-14T00:59:02.862Z,29.80
2019-04-14T01:00:03.866Z,30.80
2019-04-14T01:01:02.834Z,31.30
2019-04-14T01:02:03.455Z,31.10
2019-04-14T01:03:02.792Z,31.00
2019-04-14T01:04:03.448Z,31.00
2019-04-14T01:05:02.768Z,30.60
2019-04-14T01:06:03.266Z,31.30
2019-04-14T01:07:02.761Z,31.70
2019-04-14T01:08:03.130Z,30.80
2019-04-14T01:09:02.754Z,30.90
2019-04-14T01:10:03.893Z,31.70
2019-04-14T01:11:03.071Z,31.50
2019-04-14T01:12:03.813Z,31.70
2019-04-14T01:13:02.809Z,31.70
2019-04-14T01:14:03.702Z,31.20
2019-04-14T01:15:03.070Z,32.20
2019-04-14T01:16:09.807Z,31.70
2019-04-14T01:17:04.705Z,32.00
2019-04-14T01:18:03.607Z,31.60
2019-04-14T01:19:02.691Z,32.20
2019-04-14T01:20:03.628Z,31.70
2019-04-14T01:21:02.614Z,30.60
2019-04-14T01:22:03.205Z,31.60
2019-04-14T01:23:02.595Z,32.70
2019-04-14T01:24:03.223Z,32.90
2019-04-14T01:25:02.580Z,32.30
2019-04-14T01:26:02.930Z,31.50
2019-04-14T01:27:03.820Z,31.70
2019-04-14T01:28:02.570Z,31.70
2019-04-14T01:29:03.616Z,32.00
2019-04-14T01:30:02.710Z,31.90
2019-04-14T01:31:03.351Z,31.90
2019-04-14T01:32:02.502Z,32.00
2019-04-14T01:33:03.260Z,32.30
2019-04-14T01:34:02.450Z,30.20
2019-04-14T01:35:03.163Z,31.80
2019-04-14T01:36:02.427Z,30.70
2019-04-14T01:37:02.980Z,32.50
2019-04-14T01:38:03.688Z,32.90
2019-04-14T01:39:02.560Z,31.30
2019-04-14T01:40:03.305Z,32.20
2019-04-14T01:41:02.379Z,31.80
2019-04-14T01:42:02.827Z,32.60
2019-04-14T01:43:02.404Z,32.70
2019-04-14T01:44:02.527Z,33.00
2019-04-14T01:45:03.535Z,32.20
2019-04-14T01:46:12.536Z,32.20
2019-04-14T01:47:03.306Z,32.50
2019-04-14T01:48:02.314Z,32.60
2019-04-14T01:49:02.871Z,33.70
2019-04-14T01:50:02.299Z,32.40
2019-04-14T01:51:02.677Z,33.00
2019-04-14T01:52:03.526Z,32.20
2019-04-14T01:53:03.215Z,31.60
2019-04-14T01:54:02.242Z,31.90
2019-04-14T01:55:02.869Z,32.60
2019-04-14T01:56:03.435Z,32.40
2019-04-14T01:57:02.495Z,32.60
2019-04-14T01:58:03.237Z,32.30
2019-04-14T01:59:02.239Z,32.10
2019-04-14T02:00:03.254Z,32.10
2019-04-14T02:01:02.179Z,32.30
2019-04-14T02:02:02.992Z,32.20
2019-04-14T02:03:02.131Z,31.00
2019-04-14T02:04:02.933Z,33.20
2019-04-14T02:05:02.116Z,33.30
2019-04-14T02:06:02.593Z,31.70
2019-04-14T02:07:02.105Z,32.90
2019-04-14T02:08:02.376Z,31.90
2019-04-14T02:09:03.204Z,31.70
2019-04-14T02:10:02.080Z,31.90
2019-04-14T02:11:02.985Z,31.00
2019-04-14T02:12:02.033Z,32.20
2019-04-14T02:13:02.827Z,31.80
2019-04-14T02:14:02.009Z,32.60
2019-04-14T02:15:02.838Z,32.30
2019-04-14T02:16:15.170Z,32.60
2019-04-14T02:17:04.454Z,32.60
2019-04-14T02:18:03.127Z,32.20
2019-04-14T02:19:02.455Z,32.50
2019-04-14T02:20:03.205Z,32.10
2019-04-14T02:21:02.165Z,32.80
2019-04-14T02:22:02.732Z,31.50
2019-04-14T02:23:01.936Z,31.90
2019-04-14T02:24:02.554Z,31.90
2019-04-14T02:25:01.917Z,32.90
2019-04-14T02:26:02.259Z,32.40
2019-04-14T02:27:01.884Z,31.60
2019-04-14T02:28:02.281Z,32.90
2019-04-14T02:29:01.851Z,30.60
2019-04-14T02:30:04.061Z,34.50
2019-04-14T02:31:17.580Z,34.20
2019-04-14T02:33:36.323Z,32.40
2019-04-14T02:34:34.333Z,33.20
2019-04-14T02:35:28.511Z,32.50
2019-04-14T02:37:26.072Z,34.90
2019-04-14T02:38:45.402Z,32.40
2019-04-14T02:39:36.434Z,32.70
2019-04-14T02:40:40.993Z,33.80
2019-04-14T02:41:35.962Z,34.40
2019-04-14T02:42:36.492Z,33.30
2019-04-14T02:43:38.003Z,33.40
2019-04-14T02:44:30.508Z,32.80
2019-04-14T02:45:40.205Z,32.10
2019-04-14T02:46:32.288Z,32.40
2019-04-14T02:47:45.074Z,33.40
2019-04-14T02:49:44.133Z,34.50
2019-04-14T02:50:26.297Z,31.60
2019-04-14T02:51:26.851Z,32.40
2019-04-14T02:52:30.404Z,32.10
2019-04-14T02:53:32.551Z,31.70
2019-04-14T02:54:41.675Z,34.00
2019-04-14T02:55:21.615Z,32.30
2019-04-14T02:56:34.325Z,32.00
2019-04-14T02:57:30.464Z,32.20
2019-04-14T02:59:32.046Z,31.90
2019-04-14T03:00:39.177Z,32.40
2019-04-14T03:01:29.554Z,32.60
2019-04-14T03:02:30.733Z,32.90
2019-04-14T03:04:27.667Z,32.20
2019-04-14T03:05:28.058Z,32.50
2019-04-14T03:06:26.066Z,33.60
2019-04-14T03:07:32.290Z,33.60
2019-04-14T03:08:36.370Z,33.60
2019-04-14T03:09:38.217Z,33.90
2019-04-14T03:10:40.503Z,32.90
2019-04-14T03:13:28.903Z,33.50
2019-04-14T03:14:31.192Z,33.70
2019-04-14T03:15:35.166Z,35.00
2019-04-14T03:16:29.733Z,33.30
2019-04-14T03:19:35.418Z,35.10
2019-04-14T03:20:27.980Z,35.00
2019-04-14T03:21:30.653Z,34.30
2019-04-14T03:23:34.841Z,34.30
2019-04-14T03:24:30.704Z,33.40
2019-04-14T03:25:21.204Z,33.10
2019-04-14T03:26:29.701Z,34.70
2019-04-14T03:27:31.259Z,34.40
2019-04-14T03:28:34.637Z,33.70
2019-04-14T03:29:31.746Z,33.80
2019-04-14T03:31:52.011Z,33.50
2019-04-14T03:33:05.322Z,34.50
2019-04-14T03:33:52.439Z,34.00
2019-04-14T03:36:11.104Z,34.60
2019-04-14T03:37:21.918Z,35.30
2019-04-14T03:38:50.431Z,35.20
2019-04-14T03:39:33.539Z,37.00
2019-04-14T03:40:34.034Z,37.00
2019-04-14T03:42:36.962Z,36.70
2019-04-14T03:43:39.469Z,37.00
2019-04-14T03:44:37.512Z,37.00
2019-04-14T03:45:36.462Z,34.00
2019-04-14T03:47:45.293Z,36.20
2019-04-14T03:49:32.113Z,36.20
2019-04-14T03:50:28.894Z,36.30
2019-04-14T03:52:31.631Z,36.30
2019-04-14T03:54:20.206Z,36.20
2019-04-14T03:55:16.357Z,37.10
2019-04-14T03:56:06.902Z,37.60
2019-04-14T03:57:01.926Z,40.20
2019-04-14T03:58:00.877Z,41.00
2019-04-14T03:59:01.873Z,41.50
2019-04-14T04:00:00.865Z,40.80
2019-04-14T04:01:01.878Z,39.30
2019-04-14T04:02:00.989Z,40.00
2019-04-14T04:03:01.991Z,40.30
2019-04-14T04:04:00.808Z,39.80
2019-04-14T04:05:02.112Z,38.60
2019-04-14T04:06:00.850Z,40.30
2019-04-14T04:07:01.854Z,41.50
2019-04-14T04:08:00.771Z,40.50
2019-04-14T04:09:01.812Z,40.70
2019-04-14T04:10:00.754Z,40.80
2019-04-14T04:11:01.886Z,42.40
2019-04-14T04:12:00.739Z,42.00
2019-04-14T04:13:01.911Z,41.80
2019-04-14T04:14:00.718Z,41.60
2019-04-14T04:15:01.841Z,41.20
2019-04-14T04:16:00.698Z,41.40
2019-04-14T04:17:01.576Z,39.70
2019-04-14T04:18:00.672Z,41.70
2019-04-14T04:19:07.385Z,41.50
2019-04-14T04:20:02.558Z,41.00
2019-04-14T04:21:00.910Z,39.90
2019-04-14T04:22:00.616Z,40.40
2019-04-14T04:23:00.864Z,42.40
2019-04-14T04:24:00.604Z,41.30
2019-04-14T04:25:00.814Z,40.10
2019-04-14T04:26:01.752Z,41.40
2019-04-14T04:27:00.568Z,41.70
2019-04-14T04:28:01.598Z,42.50
2019-04-14T04:29:00.593Z,41.30
2019-04-14T04:30:01.657Z,39.80
2019-04-14T04:31:00.534Z,40.90
2019-04-14T04:32:01.391Z,41.20
2019-04-14T04:33:00.490Z,40.30
2019-04-14T04:34:01.038Z,40.40
2019-04-14T04:35:00.497Z,41.00
2019-04-14T04:36:01.104Z,41.80
2019-04-14T04:37:01.721Z,40.60
2019-04-14T04:38:00.893Z,40.20
2019-04-14T04:39:01.700Z,41.40
2019-04-14T04:40:00.665Z,41.30
2019-04-14T04:41:01.502Z,40.30
2019-04-14T04:42:00.502Z,41.80
2019-04-14T04:43:01.253Z,39.40
2019-04-14T04:44:00.742Z,39.80
2019-04-14T04:45:01.679Z,40.10
2019-04-14T04:46:00.627Z,40.60
2019-04-14T04:47:01.228Z,41.10
2019-04-14T04:48:00.372Z,40.80
2019-04-14T04:49:09.898Z,41.00
2019-04-14T04:50:02.395Z,40.80
2019-04-14T04:51:00.651Z,40.50
2019-04-14T04:52:00.281Z,42.40
2019-04-14T04:53:00.505Z,40.70
2019-04-14T04:54:00.289Z,41.60
2019-04-14T04:55:00.273Z,41.20
2019-04-14T04:56:01.422Z,39.70
2019-04-14T04:57:00.239Z,39.30
2019-04-14T04:58:01.362Z,40.60
2019-04-14T04:59:01.095Z,40.50
2019-04-14T05:00:00.617Z,40.70
2019-04-14T05:01:01.321Z,40.50
2019-04-14T05:02:00.444Z,39.30
2019-04-14T05:03:01.234Z,39.60
2019-04-14T05:04:00.362Z,41.00
2019-04-14T05:05:01.223Z,39.30
2019-04-14T05:06:00.384Z,38.50
2019-04-14T05:07:01.322Z,39.80
2019-04-14T05:08:00.120Z,40.50
2019-04-14T05:09:01.245Z,39.90
2019-04-14T05:10:00.271Z,38.60
2019-04-14T05:11:01.115Z,39.90
2019-04-14T05:12:00.316Z,39.20
2019-04-14T05:13:00.751Z,40.70
2019-04-14T05:14:00.126Z,40.50
2019-04-14T05:15:01.005Z,40.10
2019-04-14T05:16:00.032Z,39.30
2019-04-14T05:17:00.016Z,39.20
2019-04-14T05:18:00.466Z,39.30
2019-04-14T05:19:12.220Z,38.30
2019-04-14T05:20:00.986Z,39.00
2019-04-14T05:20:59.957Z,38.20
2019-04-14T05:22:00.695Z,37.80
2019-04-14T05:22:59.951Z,37.40
2019-04-14T05:24:00.662Z,39.00
2019-04-14T05:24:59.920Z,37.70
2019-04-14T05:26:00.556Z,39.00
2019-04-14T05:26:59.918Z,38.20
2019-04-14T05:28:00.441Z,37.70
2019-04-14T05:28:59.957Z,35.20
2019-04-14T05:30:00.410Z,37.70
2019-04-14T05:31:01.094Z,36.60
2019-04-14T05:32:00.122Z,35.90
2019-04-14T05:33:00.905Z,34.70
2019-04-14T05:34:00.004Z,35.80
2019-04-14T05:35:00.863Z,35.30
2019-04-14T05:35:59.922Z,35.60
2019-04-14T05:37:00.662Z,34.00
2019-04-14T05:37:59.779Z,35.50
2019-04-14T05:39:00.287Z,36.20
2019-04-14T05:39:59.744Z,35.40
2019-04-14T05:41:00.435Z,35.40
2019-04-14T05:42:07.693Z,34.70
2019-04-14T05:43:00.714Z,35.90
2019-04-14T05:44:01.527Z,35.70
2019-04-14T05:45:00.036Z,35.70
2019-04-14T05:45:59.691Z,36.60
2019-04-14T05:47:00.066Z,34.90
2019-04-14T05:48:00.980Z,35.40
2019-04-14T05:48:59.932Z,35.40
2019-04-14T05:50:00.794Z,34.90
2019-04-14T05:50:59.882Z,34.30
2019-04-14T05:51:59.616Z,35.50
2019-04-14T05:53:00.020Z,35.00
2019-04-14T05:53:59.605Z,34.60
2019-04-14T05:55:00.066Z,35.90
2019-04-14T05:55:59.571Z,36.20
2019-04-14T05:57:00.105Z,34.70
2019-04-14T05:57:59.556Z,35.10
2019-04-14T05:59:00.119Z,33.90
2019-04-14T05:59:59.556Z,34.00
2019-04-14T06:01:00.323Z,33.90
2019-04-14T06:01:59.505Z,35.30
2019-04-14T06:02:59.564Z,34.10
2019-04-14T06:04:00.353Z,34.30
2019-04-14T06:04:59.479Z,32.90
2019-04-14T06:05:59.519Z,34.30
2019-04-14T06:06:59.442Z,34.70
2019-04-14T06:07:59.440Z,33.00
2019-04-14T06:08:59.422Z,33.40
2019-04-14T06:09:59.405Z,32.70
2019-04-14T06:10:59.395Z,32.50
2019-04-14T06:11:59.414Z,31.90
2019-04-14T06:12:59.385Z,33.00
2019-04-14T06:13:59.363Z,31.80
2019-04-14T06:14:59.355Z,32.70
2019-04-14T06:15:59.349Z,32.90
2019-04-14T06:16:59.338Z,33.30
2019-04-14T06:17:59.348Z,32.70
2019-04-14T06:18:59.318Z,33.20
2019-04-14T06:19:59.295Z,32.40
2019-04-14T06:20:59.288Z,32.10
2019-04-14T06:21:59.288Z,31.40
2019-04-14T06:22:59.261Z,30.70
2019-04-14T06:23:59.289Z,31.20
2019-04-14T06:24:59.245Z,32.10
2019-04-14T06:25:59.245Z,32.30
2019-04-14T06:26:59.219Z,32.70
2019-04-14T06:27:59.206Z,31.70
2019-04-14T06:28:59.229Z,31.20
2019-04-14T06:29:59.206Z,31.10
2019-04-14T06:30:59.176Z,31.10
2019-04-14T06:31:59.185Z,30.80
2019-04-14T06:32:59.157Z,31.30
2019-04-14T06:33:59.152Z,32.20
2019-04-14T06:34:59.132Z,32.60
2019-04-14T06:35:59.152Z,30.60
2019-04-14T06:36:59.107Z,32.40
2019-04-14T06:37:59.100Z,31.00
2019-04-14T06:38:59.084Z,31.50
2019-04-14T06:39:59.075Z,31.70
2019-04-14T06:40:59.063Z,39.10
2019-04-14T06:41:59.067Z,30.20
2019-04-14T06:42:59.051Z,28.80
2019-04-14T06:43:59.029Z,28.70
2019-04-14T06:44:59.023Z,29.40
2019-04-14T06:45:59.018Z,29.40
2019-04-14T06:46:59.017Z,28.10
2019-04-14T06:47:59.000Z,28.20
2019-04-14T06:48:58.973Z,28.70
2019-04-14T06:49:58.969Z,30.50
2019-04-14T06:50:58.972Z,28.60
2019-04-14T06:51:58.975Z,29.00
2019-04-14T06:52:58.930Z,29.60
2019-04-14T06:53:58.951Z,28.20
2019-04-14T06:54:58.910Z,29.10
2019-04-14T06:55:58.901Z,29.10
2019-04-14T06:56:58.894Z,27.80
2019-04-14T06:57:58.877Z,28.90
2019-04-14T06:58:58.863Z,29.30
2019-04-14T06:59:58.881Z,27.00
2019-04-14T07:00:58.843Z,27.00
2019-04-14T07:01:59.361Z,27.40
2019-04-14T07:02:58.848Z,26.60
2019-04-14T07:03:58.824Z,28.30
2019-04-14T07:04:58.822Z,26.70
2019-04-14T07:06:00.218Z,26.00
2019-04-14T07:06:58.787Z,26.00
2019-04-14T07:07:58.776Z,26.30
2019-04-14T07:08:58.759Z,24.80
2019-04-14T07:09:58.756Z,25.40
2019-04-14T07:10:58.740Z,26.60
2019-04-14T07:11:58.760Z,23.40
2019-04-14T07:12:58.717Z,25.60
2019-04-14T07:13:58.706Z,24.70
2019-04-14T07:14:58.698Z,23.30
2019-04-14T07:15:58.685Z,24.10
2019-04-14T07:16:58.680Z,23.60
2019-04-14T07:17:58.681Z,24.00
2019-04-14T07:18:58.646Z,24.10
2019-04-14T07:20:02.229Z,25.00
2019-04-14T07:20:58.637Z,24.30
2019-04-14T07:21:58.611Z,23.60
2019-04-14T07:22:58.607Z,22.60
2019-04-14T07:23:58.620Z,23.90
2019-04-14T07:24:58.582Z,21.60
2019-04-14T07:25:58.564Z,23.80
2019-04-14T07:26:58.556Z,23.40
2019-04-14T07:27:58.541Z,23.60
2019-04-14T07:28:58.532Z,22.90
2019-04-14T07:29:58.549Z,22.90
2019-04-14T07:30:58.512Z,23.20
2019-04-14T07:31:58.524Z,23.10
2019-04-14T07:32:58.534Z,23.30
2019-04-14T07:33:58.483Z,22.10
2019-04-14T07:34:58.477Z,21.40
2019-04-14T07:35:58.471Z,21.50
2019-04-14T07:36:58.444Z,22.70
2019-04-14T07:37:58.446Z,22.90
2019-04-14T07:38:58.419Z,22.80
2019-04-14T07:39:58.411Z,22.10
2019-04-14T07:40:58.405Z,22.60
2019-04-14T07:41:58.421Z,22.70
2019-04-14T07:42:58.373Z,21.30
2019-04-14T07:43:58.368Z,21.00
2019-04-14T07:44:58.349Z,21.40
2019-04-14T07:45:58.345Z,20.50
2019-04-14T07:46:58.328Z,21.10
2019-04-14T07:47:58.339Z,21.60
2019-04-14T07:48:58.313Z,21.20
2019-04-14T07:49:58.297Z,21.00
2019-04-14T07:50:58.292Z,20.90
2019-04-14T07:51:58.271Z,20.90
2019-04-14T07:52:58.256Z,20.70
2019-04-14T07:53:58.283Z,19.90
2019-04-14T07:54:58.237Z,19.90
2019-04-14T07:55:58.255Z,20.60
2019-04-14T07:56:58.211Z,20.00
2019-04-14T07:57:58.203Z,19.90
2019-04-14T07:58:58.183Z,20.00
2019-04-14T07:59:58.189Z,20.10
2019-04-14T08:00:58.163Z,20.20
2019-04-14T08:01:58.151Z,20.30
2019-04-14T08:02:58.148Z,19.60
2019-04-14T08:03:58.127Z,19.70
2019-04-14T08:04:58.121Z,20.60
2019-04-14T08:05:58.163Z,20.90
2019-04-14T08:06:58.095Z,19.70
2019-04-14T08:07:58.090Z,20.20
2019-04-14T08:08:58.084Z,19.20
2019-04-14T08:09:58.066Z,18.60
2019-04-14T08:10:58.046Z,20.10
2019-04-14T08:11:58.071Z,20.10
2019-04-14T08:12:58.030Z,19.20
2019-04-14T08:13:58.023Z,19.80
2019-04-14T08:14:58.004Z,19.80
2019-04-14T08:15:57.994Z,20.10
2019-04-14T08:16:57.996Z,19.80
2019-04-14T08:17:57.998Z,19.60
2019-04-14T08:18:57.962Z,20.10
2019-04-14T08:19:57.957Z,19.40
2019-04-14T08:20:57.937Z,20.70
2019-04-14T08:21:57.931Z,19.80
2019-04-14T08:22:58.099Z,19.50
2019-04-14T08:23:57.919Z,19.30
2019-04-14T08:24:57.902Z,18.20
2019-04-14T08:25:57.883Z,18.60
2019-04-14T08:26:57.868Z,18.60
2019-04-14T08:27:57.872Z,18.90
2019-04-14T08:28:57.851Z,18.20
2019-04-14T08:29:57.858Z,19.80
2019-04-14T08:30:57.824Z,18.20
2019-04-14T08:31:57.832Z,16.90
2019-04-14T08:32:57.797Z,18.70
2019-04-14T08:33:57.786Z,18.30
2019-04-14T08:34:57.778Z,18.10
2019-04-14T08:35:57.783Z,17.40
2019-04-14T08:36:57.765Z,16.80
2019-04-14T08:37:57.761Z,17.40
2019-04-14T08:38:57.735Z,17.40
2019-04-14T08:39:57.727Z,17.50
2019-04-14T08:40:57.710Z,17.20
2019-04-14T08:41:57.729Z,17.50
2019-04-14T08:42:57.691Z,18.20
2019-04-14T08:43:57.676Z,17.40
2019-04-14T08:44:57.665Z,16.90
2019-04-14T08:45:57.652Z,17.90
2019-04-14T08:46:57.645Z,17.20
2019-04-14T08:47:57.650Z,18.00
2019-04-14T08:48:57.623Z,17.50
2019-04-14T08:49:57.637Z,17.50
2019-04-14T08:50:57.604Z,17.30
2019-04-14T08:51:57.585Z,17.30
2019-04-14T08:52:57.596Z,17.10
2019-04-14T08:53:57.580Z,17.20
2019-04-14T08:54:57.549Z,17.00
2019-04-14T08:55:57.542Z,17.20
2019-04-14T08:56:57.527Z,17.20
2019-04-14T08:57:57.517Z,17.20
2019-04-14T08:58:57.514Z,17.20
2019-04-14T08:59:57.531Z,16.60
2019-04-14T09:00:57.485Z,16.90
2019-04-14T09:01:57.488Z,17.30
2019-04-14T09:02:57.461Z,17.20
2019-04-14T09:03:57.451Z,17.20
2019-04-14T09:04:57.438Z,17.90
2019-04-14T09:05:57.457Z,16.60
2019-04-14T09:06:57.429Z,16.90
2019-04-14T09:07:57.411Z,17.40
2019-04-14T09:08:57.392Z,17.00
2019-04-14T09:09:57.405Z,16.50
2019-04-14T09:10:57.373Z,16.80
2019-04-14T09:11:57.381Z,16.40
2019-04-14T09:12:57.352Z,16.00
2019-04-14T09:13:57.344Z,16.60
2019-04-14T09:14:57.784Z,16.30
2019-04-14T09:15:57.337Z,16.80
2019-04-14T09:16:57.308Z,16.10
2019-04-14T09:17:57.322Z,15.90
2019-04-14T09:19:07.133Z,16.20
2019-04-14T09:19:58.272Z,15.60
2019-04-14T09:20:57.262Z,16.10
2019-04-14T09:21:57.256Z,14.90
2019-04-14T09:22:57.238Z,15.60
2019-04-14T09:23:57.251Z,15.70
2019-04-14T09:24:57.221Z,15.20
2019-04-14T09:25:57.209Z,15.70
2019-04-14T09:26:57.196Z,15.30
2019-04-14T09:27:57.184Z,15.80
2019-04-14T09:28:57.191Z,15.40
2019-04-14T09:29:57.183Z,15.70
2019-04-14T09:30:57.153Z,15.00
2019-04-14T09:31:57.145Z,15.60
2019-04-14T09:32:57.131Z,15.80
2019-04-14T09:33:57.118Z,15.70
2019-04-14T09:34:57.110Z,15.80
2019-04-14T09:35:57.120Z,15.20
2019-04-14T09:36:57.090Z,15.80
2019-04-14T09:37:57.091Z,15.20
2019-04-14T09:38:57.114Z,15.30
2019-04-14T09:39:57.050Z,15.70
2019-04-14T09:40:57.083Z,14.90
2019-04-14T09:41:57.058Z,15.40
2019-04-14T09:42:57.825Z,15.20
2019-04-14T09:43:57.007Z,15.30
2019-04-14T09:44:56.998Z,15.60
2019-04-14T09:45:56.986Z,15.40
2019-04-14T09:46:56.975Z,15.50
2019-04-14T09:47:56.990Z,15.80
2019-04-14T09:48:56.950Z,15.80
2019-04-14T09:49:56.942Z,14.80
2019-04-14T09:51:04.839Z,15.20
2019-04-14T09:51:57.926Z,14.60
2019-04-14T09:52:56.922Z,14.80
2019-04-14T09:53:56.936Z,15.30
2019-04-14T09:54:56.899Z,15.40
2019-04-14T09:55:56.878Z,15.00
2019-04-14T09:56:56.865Z,16.00
2019-04-14T09:57:56.861Z,16.10
2019-04-14T09:58:56.846Z,16.30
2019-04-14T09:59:57.183Z,16.90
2019-04-14T10:00:56.830Z,15.80
2019-04-14T10:01:56.826Z,16.50
2019-04-14T10:02:56.804Z,16.60
2019-04-14T10:03:56.789Z,18.70
2019-04-14T10:04:56.785Z,17.80
2019-04-14T10:05:56.794Z,16.60
2019-04-14T10:06:56.778Z,16.80
2019-04-14T10:07:56.746Z,16.40
2019-04-14T10:08:56.740Z,16.50
2019-04-14T10:09:56.733Z,16.50
2019-04-14T10:10:56.712Z,16.50
2019-04-14T10:11:56.720Z,16.70
2019-04-14T10:12:56.696Z,16.00
2019-04-14T10:13:56.680Z,16.50
2019-04-14T10:14:56.669Z,16.30
2019-04-14T10:15:56.661Z,16.70
2019-04-14T10:16:56.674Z,18.30
2019-04-14T10:17:56.665Z,18.30
2019-04-14T10:18:56.630Z,17.80
2019-04-14T10:19:56.614Z,16.90
2019-04-14T10:20:56.603Z,17.20
2019-04-14T10:21:56.593Z,17.40
2019-04-14T10:22:56.586Z,17.40
2019-04-14T10:23:56.600Z,16.60
2019-04-14T10:24:56.575Z,16.60
2019-04-14T10:25:56.551Z,16.20
2019-04-14T10:26:56.544Z,16.60
2019-04-14T10:27:56.534Z,15.30
2019-04-14T10:28:56.524Z,16.20
2019-04-14T10:29:56.535Z,15.20
2019-04-14T10:30:56.500Z,14.90
2019-04-14T10:31:56.516Z,16.10
2019-04-14T10:32:56.482Z,16.10
2019-04-14T10:33:56.471Z,16.40
2019-04-14T10:34:56.462Z,15.80
2019-04-14T10:35:56.473Z,16.00
2019-04-14T10:36:56.437Z,15.90
2019-04-14T10:37:56.421Z,15.50
2019-04-14T10:38:56.411Z,15.80
2019-04-14T10:39:56.416Z,15.30
2019-04-14T10:40:56.395Z,15.50
2019-04-14T10:41:56.399Z,16.30
2019-04-14T10:42:56.373Z,16.10
2019-04-14T10:43:56.360Z,15.50
2019-04-14T10:44:56.349Z,15.20
2019-04-14T10:45:56.336Z,15.30
2019-04-14T10:46:56.328Z,15.10
2019-04-14T10:47:56.342Z,15.50
2019-04-14T10:48:56.305Z,15.10
2019-04-14T10:49:56.297Z,14.80
2019-04-14T10:50:56.283Z,15.10
2019-04-14T10:51:56.269Z,14.80
2019-04-14T10:52:56.262Z,15.60
2019-04-14T10:53:56.277Z,15.00
2019-04-14T10:54:56.242Z,15.00
2019-04-14T10:55:56.226Z,15.30
2019-04-14T10:56:56.223Z,15.80
2019-04-14T10:57:56.206Z,15.10
2019-04-14T10:58:56.206Z,15.70
2019-04-14T10:59:56.247Z,15.00
2019-04-14T11:00:56.199Z,15.60
2019-04-14T11:01:56.172Z,15.40
2019-04-14T11:02:56.155Z,15.30
2019-04-14T11:03:56.142Z,15.10
2019-04-14T11:04:56.135Z,15.00
2019-04-14T11:05:56.139Z,15.80
2019-04-14T11:06:56.112Z,15.00
2019-04-14T11:07:56.097Z,15.70
2019-04-14T11:08:56.090Z,16.00
2019-04-14T11:09:56.082Z,15.00
2019-04-14T11:10:56.066Z,14.90
2019-04-14T11:11:56.105Z,15.80
2019-04-14T11:12:56.047Z,15.10
2019-04-14T11:13:56.085Z,14.70
2019-04-14T11:14:56.025Z,14.80
2019-04-14T11:15:56.022Z,14.30
2019-04-14T11:16:55.999Z,15.00
2019-04-14T11:17:56.016Z,14.30
2019-04-14T11:18:55.999Z,14.50
2019-04-14T11:19:55.965Z,15.90
2019-04-14T11:20:55.955Z,15.00
2019-04-14T11:21:55.947Z,15.50
2019-04-14T11:23:03.142Z,15.00
2019-04-14T11:23:56.943Z,15.00
2019-04-14T11:24:55.936Z,15.70
2019-04-14T11:25:55.903Z,14.90
2019-04-14T11:26:55.898Z,15.70
2019-04-14T11:27:55.880Z,14.80
2019-04-14T11:28:55.888Z,14.80
2019-04-14T11:29:55.881Z,14.70
2019-04-14T11:30:55.853Z,14.20
2019-04-14T11:31:55.836Z,14.60
2019-04-14T11:32:55.827Z,14.90
2019-04-14T11:33:55.813Z,14.90
2019-04-14T11:34:55.804Z,15.50
2019-04-14T11:35:55.810Z,14.20
2019-04-14T11:36:55.779Z,15.50
2019-04-14T11:37:55.772Z,14.80
2019-04-14T11:38:55.769Z,15.10
2019-04-14T11:39:55.766Z,13.60
2019-04-14T11:40:55.761Z,15.70
2019-04-14T11:41:55.746Z,14.40
2019-04-14T11:42:55.711Z,14.60
2019-04-14T11:43:55.731Z,14.10
2019-04-14T11:44:55.698Z,13.90
2019-04-14T11:45:55.678Z,14.50
2019-04-14T11:46:55.677Z,14.70
2019-04-14T11:47:55.683Z,14.60
2019-04-14T11:48:55.647Z,14.10
2019-04-14T11:49:55.630Z,14.50
2019-04-14T11:50:55.633Z,14.30
2019-04-14T11:51:55.930Z,14.50
2019-04-14T11:52:55.598Z,13.60
2019-04-14T11:53:55.607Z,14.50
2019-04-14T11:54:55.576Z,14.20
2019-04-14T11:55:55.568Z,13.70
2019-04-14T11:56:55.558Z,14.20
2019-04-14T11:57:55.545Z,13.60
2019-04-14T11:58:55.538Z,13.70
2019-04-14T11:59:55.539Z,13.70
2019-04-14T12:00:55.509Z,13.90
2019-04-14T12:01:55.501Z,13.80
2019-04-14T12:02:55.497Z,13.00
2019-04-14T12:03:55.497Z,13.10
2019-04-14T12:04:55.469Z,13.30
2019-04-14T12:05:55.477Z,13.40
2019-04-14T12:06:55.465Z,13.30
2019-04-14T12:07:55.432Z,13.80
2019-04-14T12:08:55.427Z,13.40
2019-04-14T12:09:55.414Z,13.00
2019-04-14T12:10:55.399Z,13.00
2019-04-14T12:11:55.419Z,13.30
2019-04-14T12:12:55.384Z,12.90
2019-04-14T12:13:55.366Z,13.10
2019-04-14T12:14:55.358Z,12.00
2019-04-14T12:15:55.344Z,12.80
2019-04-14T12:16:55.335Z,12.30
2019-04-14T12:17:55.368Z,12.50
2019-04-14T12:18:55.308Z,13.30
2019-04-14T12:19:55.299Z,12.60
2019-04-14T12:20:55.287Z,13.10
2019-04-14T12:22:07.440Z,13.10
2019-04-14T12:22:56.277Z,12.60
2019-04-14T12:23:55.251Z,12.30
2019-04-14T12:24:55.240Z,12.50
2019-04-14T12:26:05.117Z,11.90
2019-04-14T12:26:56.219Z,12.50
2019-04-14T12:27:55.790Z,12.40
2019-04-14T12:28:55.855Z,12.00
2019-04-14T12:29:55.188Z,11.90
2019-04-14T12:30:55.477Z,12.30
2019-04-14T12:31:55.304Z,11.70
2019-04-14T12:32:55.152Z,12.40
2019-04-14T12:33:55.140Z,12.10
2019-04-14T12:34:55.153Z,12.10
2019-04-14T12:35:55.122Z,12.50
2019-04-14T12:36:55.115Z,11.90
2019-04-14T12:37:55.099Z,12.40
2019-04-14T12:38:55.084Z,12.50
2019-04-14T12:39:55.073Z,12.70
2019-04-14T12:40:57.756Z,12.70
2019-04-14T12:41:55.050Z,13.30
2019-04-14T12:42:55.043Z,13.00
2019-04-14T12:43:55.027Z,12.20
2019-04-14T12:44:55.024Z,12.80
2019-04-14T12:45:55.008Z,11.80
2019-04-14T12:46:55.024Z,12.30
2019-04-14T12:47:54.983Z,12.30
2019-04-14T12:48:54.971Z,12.10
2019-04-14T12:49:54.968Z,11.80
2019-04-14T12:50:54.948Z,12.10
2019-04-14T12:51:54.935Z,12.40
2019-04-14T12:52:54.951Z,12.00
2019-04-14T12:53:54.911Z,11.50
2019-04-14T12:54:54.903Z,12.20
2019-04-14T12:55:54.913Z,12.40
2019-04-14T12:56:54.879Z,12.50
2019-04-14T12:57:54.866Z,12.10
2019-04-14T12:58:54.874Z,12.30
2019-04-14T12:59:54.844Z,12.30
2019-04-14T13:00:54.831Z,12.90
2019-04-14T13:01:54.819Z,12.30
2019-04-14T13:02:54.814Z,12.40
2019-04-14T13:03:54.796Z,11.80
2019-04-14T13:04:55.478Z,12.90
2019-04-14T13:05:54.776Z,12.40
2019-04-14T13:06:54.764Z,12.20
2019-04-14T13:07:54.747Z,12.20
2019-04-14T13:08:54.739Z,12.60
2019-04-14T13:09:54.742Z,12.60